createdAt,value
2022-12-06T00:01:20.637Z,82.63
2022-12-06T00:03:52.664Z,83.50
2022-12-06T00:06:22.512Z,82.50
2022-12-06T00:08:51.873Z,83.47
2022-12-06T00:11:22.085Z,85.87
2022-12-06T00:13:54.203Z,85.13
2022-12-06T00:16:24.836Z,84.17
2022-12-06T00:18:53.715Z,83.60
2022-12-06T00:21:24.327Z,82.67
2022-12-06T00:23:54.038Z,80.67
2022-12-06T00:26:23.063Z,80.57
2022-12-06T00:28:54.285Z,82.70
2022-12-06T00:31:26.399Z,84.70
2022-12-06T00:33:55.758Z,82.70
2022-12-06T00:36:26.911Z,86.30
2022-12-06T00:38:55.725Z,87.50
2022-12-06T00:41:25.301Z,85.57
2022-12-06T00:43:54.517Z,89.30
2022-12-06T00:46:26.957Z,83.47
2022-12-06T00:48:56.528Z,88.90
2022-12-06T00:51:26.246Z,85.43
2022-12-06T00:53:55.370Z,87.37
2022-12-06T00:56:24.672Z,87.10
2022-12-06T00:58:52.960Z,84.87
2022-12-06T01:01:24.167Z,86.80
2022-12-06T01:03:54.407Z,86.03
2022-12-06T01:06:26.104Z,89.63
2022-12-06T01:08:55.059Z,87.67
2022-12-06T01:11:24.448Z,88.77
2022-12-06T01:13:53.106Z,89.97
2022-12-06T01:16:25.128Z,90.57
2022-12-06T01:18:54.819Z,90.97
2022-12-06T01:21:23.650Z,92.60
2022-12-06T01:23:54.276Z,94.10
2022-12-06T01:26:25.026Z,92.50
2022-12-06T01:28:53.381Z,92.73
2022-12-06T01:31:23.658Z,94.40
2022-12-06T01:33:51.854Z,92.77
2022-12-06T01:36:21.080Z,93.10
2022-12-06T01:38:52.868Z,94.33
2022-12-06T01:41:22.023Z,92.50
2022-12-06T01:43:50.775Z,93.83
2022-12-06T01:46:29.244Z,91.60
2022-12-06T01:49:03.625Z,95.03
2022-12-06T01:51:32.169Z,93.90
2022-12-06T01:54:01.418Z,95.70
2022-12-06T01:56:29.726Z,96.77
2022-12-06T01:59:00.068Z,96.97
2022-12-06T02:01:31.881Z,95.80
2022-12-06T02:04:02.165Z,100.43
2022-12-06T02:06:31.902Z,94.27
2022-12-06T02:09:01.984Z,94.83
2022-12-06T02:11:34.989Z,93.10
2022-12-06T02:14:06.268Z,91.00
2022-12-06T02:16:47.004Z,94.87
2022-12-06T02:19:44.300Z,93.90
2022-12-06T02:22:23.123Z,92.30
2022-12-06T02:25:31.507Z,89.67
2022-12-06T02:28:23.198Z,92.40
2022-12-06T02:30:56.726Z,92.67
2022-12-06T02:33:29.626Z,90.93
2022-12-06T02:36:04.896Z,94.63
2022-12-06T02:38:36.242Z,89.20
2022-12-06T02:41:10.151Z,90.50
2022-12-06T02:43:43.037Z,90.80
2022-12-06T02:46:15.886Z,93.10
2022-12-06T02:48:45.923Z,92.70
2022-12-06T02:51:18.167Z,90.33
2022-12-06T02:53:49.649Z,90.77
2022-12-06T02:56:19.439Z,94.93
2022-12-06T02:58:48.280Z,92.90
2022-12-06T03:01:21.430Z,91.80
2022-12-06T03:04:00.000Z,92.63
2022-12-06T03:06:49.837Z,88.87
2022-12-06T03:09:36.239Z,89.80
2022-12-06T03:12:09.452Z,91.73
2022-12-06T03:14:44.604Z,88.17
2022-12-06T03:17:20.331Z,91.00
2022-12-06T03:19:55.512Z,90.03
2022-12-06T03:22:29.313Z,87.00
2022-12-06T03:24:58.939Z,86.20
2022-12-06T03:27:28.417Z,90.03
2022-12-06T03:30:00.734Z,89.13
2022-12-06T03:32:34.490Z,90.33
2022-12-06T03:35:06.988Z,91.83
2022-12-06T03:37:37.956Z,90.70
2022-12-06T03:40:11.706Z,91.00
2022-12-06T03:42:40.628Z,91.70
2022-12-06T03:45:12.027Z,91.50
2022-12-06T03:47:49.981Z,94.40
2022-12-06T03:50:23.536Z,95.40
2022-12-06T03:52:52.680Z,93.37
2022-12-06T03:55:21.213Z,94.03
2022-12-06T03:57:49.305Z,93.03
2022-12-06T04:00:17.994Z,96.03
2022-12-06T04:02:47.501Z,97.20
2022-12-06T04:05:15.994Z,93.10
2022-12-06T04:07:44.073Z,88.73
2022-12-06T04:10:12.753Z,90.60
2022-12-06T04:12:58.423Z,91.93
2022-12-06T04:15:26.508Z,92.30
2022-12-06T04:18:13.739Z,95.73
2022-12-06T04:21:01.293Z,93.70
2022-12-06T04:23:30.115Z,90.60
2022-12-06T04:25:58.269Z,89.40
2022-12-06T04:28:44.003Z,93.17
2022-12-06T04:31:29.869Z,90.33
2022-12-06T04:34:16.706Z,90.33
2022-12-06T04:37:02.819Z,93.13
2022-12-06T04:39:31.360Z,89.30
2022-12-06T04:42:17.184Z,89.00
2022-12-06T04:44:45.592Z,90.53
2022-12-06T04:47:14.081Z,90.13
2022-12-06T04:49:43.613Z,93.07
2022-12-06T04:52:12.264Z,92.97
2022-12-06T04:54:40.610Z,87.87
2022-12-06T04:57:11.010Z,90.53
2022-12-06T04:59:40.338Z,88.20
2022-12-06T05:02:10.919Z,90.33
2022-12-06T05:04:39.148Z,87.30
2022-12-06T05:07:11.705Z,93.57
2022-12-06T05:09:40.315Z,87.90
2022-12-06T05:12:08.963Z,86.73
2022-12-06T05:14:37.202Z,86.27
2022-12-06T05:17:05.411Z,87.80
2022-12-06T05:19:33.608Z,86.00
2022-12-06T05:22:01.675Z,86.50
2022-12-06T05:24:31.312Z,84.43
2022-12-06T05:26:59.387Z,82.60
2022-12-06T05:29:27.688Z,84.87
2022-12-06T05:31:55.923Z,82.53
2022-12-06T05:34:24.885Z,82.23
2022-12-06T05:36:53.081Z,84.97
2022-12-06T05:39:21.162Z,85.70
2022-12-06T05:41:50.706Z,85.07
2022-12-06T05:44:19.034Z,83.30
2022-12-06T05:46:47.177Z,84.33
2022-12-06T05:49:15.352Z,84.17
2022-12-06T05:51:44.366Z,86.37
2022-12-06T05:54:12.540Z,85.03
2022-12-06T05:56:40.971Z,89.00
2022-12-06T05:59:10.502Z,83.23
2022-12-06T06:01:38.984Z,84.43
2022-12-06T06:04:07.172Z,85.20
2022-12-06T06:06:35.501Z,84.17
2022-12-06T06:09:03.838Z,80.37
2022-12-06T06:11:32.022Z,83.90
2022-12-06T06:14:00.179Z,79.30
2022-12-06T06:16:30.258Z,77.83
2022-12-06T06:18:58.403Z,84.37
2022-12-06T06:21:26.511Z,82.53
2022-12-06T06:23:54.700Z,81.37
2022-12-06T06:26:23.014Z,80.93
2022-12-06T06:28:51.245Z,80.07
2022-12-06T06:31:19.393Z,77.13
2022-12-06T06:33:49.088Z,79.10
2022-12-06T06:36:17.374Z,79.57
2022-12-06T06:38:45.639Z,80.23
2022-12-06T06:41:13.733Z,82.83
2022-12-06T06:43:41.891Z,81.73
2022-12-06T06:46:10.942Z,81.43
2022-12-06T06:48:40.475Z,83.10
2022-12-06T06:51:12.525Z,82.27
2022-12-06T06:53:41.014Z,83.43
2022-12-06T06:56:09.861Z,82.27
2022-12-06T06:58:38.047Z,82.40
2022-12-06T07:01:08.910Z,86.05
2022-12-06T07:03:37.267Z,81.17
2022-12-06T07:06:10.554Z,82.67
2022-12-06T07:08:40.162Z,81.60
2022-12-06T07:11:08.946Z,82.73
2022-12-06T07:13:38.138Z,86.53
2022-12-06T07:16:08.164Z,82.13
2022-12-06T07:18:36.639Z,81.00
2022-12-06T07:21:06.893Z,89.93
2022-12-06T07:23:37.766Z,83.00
2022-12-06T07:26:07.632Z,82.27
2022-12-06T07:28:37.033Z,82.90
2022-12-06T07:31:12.415Z,83.40
2022-12-06T07:33:41.596Z,81.30
2022-12-06T07:36:12.629Z,80.50
2022-12-06T07:38:43.665Z,81.23
2022-12-06T07:41:31.213Z,79.20
2022-12-06T07:44:19.371Z,79.83
2022-12-06T07:46:48.323Z,76.60
2022-12-06T07:49:17.707Z,75.07
2022-12-06T07:51:46.646Z,75.87
2022-12-06T07:54:17.361Z,79.03
2022-12-06T07:56:45.846Z,78.70
2022-12-06T07:59:14.297Z,76.93
2022-12-06T08:01:42.693Z,74.77
2022-12-06T08:04:10.884Z,77.40
2022-12-06T08:06:39.173Z,78.33
2022-12-06T08:09:07.774Z,82.20
2022-12-06T08:11:37.679Z,86.70
2022-12-06T08:14:06.357Z,79.30
2022-12-06T08:16:34.557Z,82.90
2022-12-06T08:19:02.790Z,86.67
2022-12-06T08:21:30.991Z,87.67
2022-12-06T08:23:59.263Z,87.10
2022-12-06T08:26:27.489Z,90.63
2022-12-06T08:28:56.935Z,93.97
2022-12-06T08:31:25.595Z,94.57
2022-12-06T08:33:53.997Z,94.20
2022-12-06T08:36:23.846Z,96.03
2022-12-06T08:38:53.121Z,95.40
2022-12-06T08:41:40.296Z,95.57
2022-12-06T08:44:13.779Z,96.50
2022-12-06T08:46:41.891Z,95.97
2022-12-06T08:49:11.060Z,94.03
2022-12-06T08:51:39.532Z,100.33
2022-12-06T08:54:08.956Z,104.90
2022-12-06T08:56:38.288Z,102.80
2022-12-06T08:59:07.048Z,103.47
2022-12-06T09:01:38.426Z,104.40
2022-12-06T09:04:08.463Z,103.97
2022-12-06T09:06:39.322Z,103.83
2022-12-06T09:09:08.854Z,107.50
2022-12-06T09:11:37.325Z,109.87
2022-12-06T09:14:05.702Z,109.97
2022-12-06T09:16:33.974Z,110.30
2022-12-06T09:19:03.778Z,107.97
2022-12-06T09:21:33.602Z,111.30
2022-12-06T09:24:01.805Z,111.20
2022-12-06T09:26:30.148Z,111.60
2022-12-06T09:28:59.501Z,111.13
2022-12-06T09:31:27.935Z,107.53
2022-12-06T09:33:56.709Z,108.03
2022-12-06T09:36:28.044Z,107.27
2022-12-06T09:39:01.278Z,112.03
2022-12-06T09:41:54.626Z,110.57
2022-12-06T09:44:36.357Z,106.73
2022-12-06T09:47:17.837Z,111.57
2022-12-06T09:49:53.429Z,113.67
2022-12-06T09:52:47.924Z,111.33
2022-12-06T09:55:29.398Z,104.70
2022-12-06T09:58:05.003Z,107.57
2022-12-06T10:00:41.861Z,108.83
2022-12-06T10:03:35.073Z,115.73
2022-12-06T10:06:05.614Z,114.07
2022-12-06T10:09:04.420Z,116.30
2022-12-06T10:11:47.400Z,114.70
2022-12-06T10:14:31.821Z,117.50
2022-12-06T10:17:09.444Z,113.03
2022-12-06T10:19:54.462Z,116.73
2022-12-06T10:22:31.288Z,115.60
2022-12-06T10:25:09.246Z,117.00
2022-12-06T10:27:39.649Z,113.43
2022-12-06T10:30:10.788Z,118.23
2022-12-06T10:32:53.500Z,119.20
2022-12-06T10:35:40.853Z,115.60
2022-12-06T10:38:20.316Z,106.33
2022-12-06T10:41:01.300Z,106.90
2022-12-06T10:43:34.975Z,120.17
2022-12-06T10:46:27.022Z,124.33
2022-12-06T10:49:03.935Z,107.17
2022-12-06T10:51:38.350Z,105.17
2022-12-06T10:54:17.751Z,107.47
2022-12-06T10:56:50.230Z,111.17
2022-12-06T10:59:35.563Z,108.90
2022-12-06T11:02:21.304Z,109.67
2022-12-06T11:04:50.981Z,105.20
2022-12-06T11:07:23.824Z,98.50
2022-12-06T11:09:54.685Z,90.30
2022-12-06T11:12:31.413Z,88.10
2022-12-06T11:15:05.571Z,86.70
2022-12-06T11:17:38.261Z,70.10
2022-12-06T11:20:16.793Z,68.37
2022-12-06T11:22:54.522Z,68.57
2022-12-06T11:25:28.588Z,62.73
2022-12-06T11:28:06.436Z,55.50
2022-12-06T11:30:35.108Z,49.73
2022-12-06T11:33:04.638Z,46.50
2022-12-06T11:35:33.515Z,43.50
2022-12-06T11:38:03.530Z,42.57
2022-12-06T11:40:34.178Z,38.10
2022-12-06T11:43:06.906Z,35.90
2022-12-06T11:45:39.026Z,33.90
2022-12-06T11:48:14.971Z,34.30
2022-12-06T11:50:44.824Z,33.37
2022-12-06T11:53:21.308Z,32.17
2022-12-06T11:55:53.165Z,30.27
2022-12-06T11:58:28.093Z,30.47
2022-12-06T12:00:59.297Z,28.07
2022-12-06T12:03:29.931Z,26.63
2022-12-06T12:06:18.268Z,25.80
2022-12-06T12:08:56.612Z,25.57
2022-12-06T12:11:27.799Z,24.93
2022-12-06T12:14:00.531Z,24.80
2022-12-06T12:16:33.966Z,22.70
2022-12-06T12:19:05.217Z,23.03
2022-12-06T12:21:37.412Z,22.07
2022-12-06T12:24:07.468Z,22.37
2022-12-06T12:26:38.558Z,21.50
2022-12-06T12:29:16.537Z,21.73
2022-12-06T12:31:53.770Z,21.93
2022-12-06T12:34:24.217Z,21.37
2022-12-06T12:36:54.782Z,21.40
2022-12-06T12:39:32.515Z,21.57
2022-12-06T12:42:01.894Z,21.80
2022-12-06T12:44:38.151Z,21.67
2022-12-06T12:47:17.758Z,21.17
2022-12-06T12:50:02.063Z,21.57
2022-12-06T12:52:32.330Z,22.20
2022-12-06T12:55:03.141Z,20.90
2022-12-06T12:57:31.591Z,21.47
2022-12-06T13:00:01.558Z,21.67
2022-12-06T13:02:32.037Z,22.27
2022-12-06T13:05:31.105Z,22.43
2022-12-06T13:07:56.417Z,22.43
2022-12-06T13:10:31.765Z,23.07
2022-12-06T13:13:02.833Z,22.47
2022-12-06T13:15:36.810Z,22.80
2022-12-06T13:18:12.465Z,21.87
2022-12-06T13:20:42.056Z,22.33
2022-12-06T13:23:14.643Z,22.63
2022-12-06T13:25:48.493Z,22.47
2022-12-06T13:28:20.353Z,22.53
2022-12-06T13:30:55.830Z,22.20
2022-12-06T13:33:26.847Z,22.57
2022-12-06T13:35:59.325Z,23.23
2022-12-06T13:38:33.359Z,23.20
2022-12-06T13:41:02.401Z,23.37
2022-12-06T13:43:57.898Z,22.53
2022-12-06T13:46:33.259Z,22.63
2022-12-06T13:49:04.015Z,22.63
2022-12-06T13:51:46.821Z,22.03
2022-12-06T13:54:42.116Z,21.80
2022-12-06T13:57:31.812Z,22.00
2022-12-06T14:00:00.367Z,23.17
2022-12-06T14:02:46.514Z,22.83
2022-12-06T14:08:19.116Z,23.67
2022-12-06T14:10:47.967Z,23.67
2022-12-06T14:13:21.667Z,23.37
2022-12-06T14:15:51.941Z,23.50
2022-12-06T14:18:24.800Z,25.20
2022-12-06T14:20:55.244Z,23.77
2022-12-06T14:23:31.527Z,24.17
2022-12-06T14:26:13.756Z,24.17
2022-12-06T14:28:42.361Z,24.00
2022-12-06T14:31:21.022Z,24.10
2022-12-06T14:33:51.967Z,23.30
2022-12-06T14:36:24.997Z,22.90
2022-12-06T14:39:02.436Z,23.60
2022-12-06T14:41:54.221Z,23.40
2022-12-06T14:44:28.550Z,23.50
2022-12-06T14:46:57.877Z,23.80
2022-12-06T14:49:46.862Z,25.00
2022-12-06T14:52:19.972Z,26.17
2022-12-06T14:54:49.871Z,28.00
2022-12-06T14:57:28.716Z,30.00
2022-12-06T15:00:27.039Z,32.10
2022-12-06T15:03:22.917Z,32.63
2022-12-06T15:06:09.836Z,35.50
2022-12-06T15:08:39.396Z,36.40
2022-12-06T15:11:43.156Z,39.43
2022-12-06T15:14:19.199Z,42.93
2022-12-06T15:16:59.046Z,42.57
2022-12-06T15:19:27.749Z,47.20
2022-12-06T15:21:57.389Z,48.07
2022-12-06T15:24:27.293Z,48.40
2022-12-06T15:26:55.689Z,48.97
2022-12-06T15:29:24.693Z,51.63
2022-12-06T15:31:55.026Z,51.60
2022-12-06T15:34:26.202Z,52.20
2022-12-06T15:37:15.312Z,53.67
2022-12-06T15:39:45.121Z,54.10
2022-12-06T15:42:19.646Z,54.53
2022-12-06T15:44:49.696Z,59.87
2022-12-06T15:47:19.653Z,58.07
2022-12-06T15:49:50.936Z,58.63
2022-12-06T15:52:23.141Z,62.13
2022-12-06T15:54:53.124Z,60.77
2022-12-06T15:57:21.372Z,59.67
2022-12-06T15:59:49.640Z,62.87
2022-12-06T16:02:19.662Z,63.33
2022-12-06T16:04:50.560Z,63.17
2022-12-06T16:07:19.638Z,65.37
2022-12-06T16:09:48.309Z,64.17
2022-12-06T16:12:18.222Z,67.17
2022-12-06T16:14:46.441Z,65.37
2022-12-06T16:17:14.601Z,65.53
2022-12-06T16:20:00.429Z,64.13
2022-12-06T16:22:42.631Z,63.97
2022-12-06T16:25:14.286Z,62.40
2022-12-06T16:27:43.827Z,60.90
2022-12-06T16:30:12.786Z,62.27
2022-12-06T16:32:41.012Z,61.00
2022-12-06T16:35:09.509Z,61.60
2022-12-06T16:37:37.809Z,61.30
2022-12-06T16:40:08.193Z,61.87
2022-12-06T16:42:36.329Z,60.53
2022-12-06T16:45:06.571Z,60.37
2022-12-06T16:47:34.763Z,59.33
2022-12-06T16:50:02.983Z,61.67
2022-12-06T16:52:31.018Z,63.50
2022-12-06T16:54:59.254Z,62.57
2022-12-06T16:57:27.776Z,64.27
2022-12-06T16:59:55.982Z,66.07
2022-12-06T17:02:29.454Z,65.77
2022-12-06T17:05:01.197Z,65.20
2022-12-06T17:07:29.816Z,70.07
2022-12-06T17:09:58.004Z,72.20
2022-12-06T17:12:26.463Z,72.33
2022-12-06T17:14:55.844Z,71.60
2022-12-06T17:17:26.197Z,70.70
2022-12-06T17:19:56.313Z,76.65
2022-12-06T17:22:24.726Z,76.53
2022-12-06T17:24:53.154Z,72.27
2022-12-06T17:27:21.244Z,70.43
2022-12-06T17:29:49.463Z,67.10
2022-12-06T17:32:17.869Z,69.30
2022-12-06T17:34:46.028Z,71.37
2022-12-06T17:37:15.573Z,64.80
2022-12-06T17:39:43.716Z,70.87
2022-12-06T17:42:30.379Z,64.40
2022-12-06T17:45:00.112Z,66.30
2022-12-06T17:47:28.606Z,65.60
2022-12-06T17:49:56.722Z,64.30
2022-12-06T17:52:26.403Z,63.90
2022-12-06T17:54:54.556Z,64.60
2022-12-06T17:57:22.752Z,65.10
2022-12-06T17:59:50.931Z,68.10
2022-12-06T18:02:23.324Z,66.07
2022-12-06T18:04:52.621Z,65.07
2022-12-06T18:07:21.196Z,69.07
2022-12-06T18:09:50.870Z,71.33
2022-12-06T18:12:19.065Z,71.07
2022-12-06T18:14:47.355Z,71.77
2022-12-06T18:17:15.482Z,72.70
2022-12-06T18:19:46.733Z,71.90
2022-12-06T18:22:15.435Z,76.27
2022-12-06T18:24:44.691Z,75.80
2022-12-06T18:27:14.347Z,77.40
2022-12-06T18:29:42.615Z,76.70
2022-12-06T18:32:10.992Z,79.30
2022-12-06T18:34:39.439Z,79.40
2022-12-06T18:37:07.530Z,78.97
2022-12-06T18:39:36.083Z,76.63
2022-12-06T18:42:04.261Z,76.50
2022-12-06T18:44:33.866Z,77.17
2022-12-06T18:47:02.226Z,74.27
2022-12-06T18:49:30.398Z,81.30
2022-12-06T18:51:58.662Z,78.10
2022-12-06T18:54:28.289Z,82.83
2022-12-06T18:56:58.987Z,84.60
2022-12-06T18:59:27.884Z,84.87
2022-12-06T19:01:57.950Z,83.20
2022-12-06T19:04:26.176Z,81.63
2022-12-06T19:06:54.439Z,84.13
2022-12-06T19:09:23.500Z,82.77
2022-12-06T19:11:51.761Z,84.00
2022-12-06T19:14:19.948Z,82.57
2022-12-06T19:16:49.855Z,82.73
2022-12-06T19:19:20.905Z,82.57
2022-12-06T19:21:50.422Z,84.17
2022-12-06T19:24:21.614Z,84.47
2022-12-06T19:26:51.153Z,80.87
2022-12-06T19:29:19.851Z,82.50
2022-12-06T19:31:48.693Z,85.03
2022-12-06T19:34:19.964Z,83.37
2022-12-06T19:36:50.452Z,82.60
2022-12-06T19:39:19.614Z,81.27
2022-12-06T19:42:05.601Z,83.50
2022-12-06T19:44:33.900Z,81.43
2022-12-06T19:47:02.158Z,84.23
2022-12-06T19:49:32.050Z,85.10
2022-12-06T19:52:00.378Z,80.80
2022-12-06T19:54:30.796Z,84.23
2022-12-06T19:57:00.408Z,85.13
2022-12-06T19:59:30.375Z,83.40
2022-12-06T20:01:59.157Z,85.73
2022-12-06T20:04:29.070Z,81.63
2022-12-06T20:06:59.301Z,83.70
2022-12-06T20:09:30.884Z,83.23
2022-12-06T20:12:04.307Z,83.87
2022-12-06T20:14:37.010Z,83.50
2022-12-06T20:17:07.468Z,83.53
2022-12-06T20:19:35.713Z,86.53
2022-12-06T20:22:05.360Z,89.47
2022-12-06T20:24:33.621Z,88.00
2022-12-06T20:27:02.811Z,90.90
2022-12-06T20:29:32.595Z,92.40
2022-12-06T20:32:01.832Z,91.37
2022-12-06T20:34:34.315Z,89.00
2022-12-06T20:37:04.421Z,89.17
2022-12-06T20:39:35.643Z,90.67
2022-12-06T20:42:05.779Z,93.93
2022-12-06T20:44:34.724Z,93.30
2022-12-06T20:47:02.967Z,84.20
2022-12-06T20:49:31.447Z,85.13
2022-12-06T20:52:02.156Z,87.83
2022-12-06T20:54:30.488Z,86.40
2022-12-06T20:57:00.189Z,86.47
2022-12-06T20:59:29.499Z,85.73
2022-12-06T21:01:57.863Z,86.63
2022-12-06T21:04:26.665Z,87.90
2022-12-06T21:06:54.924Z,85.87
2022-12-06T21:09:23.904Z,87.03
2022-12-06T21:11:52.087Z,86.87
2022-12-06T21:14:22.215Z,81.97
2022-12-06T21:16:50.774Z,86.07
2022-12-06T21:19:20.532Z,85.97
2022-12-06T21:21:50.518Z,88.60
2022-12-06T21:24:21.531Z,84.57
2022-12-06T21:26:50.233Z,86.47
2022-12-06T21:29:21.679Z,86.20
2022-12-06T21:31:53.381Z,88.73
2022-12-06T21:34:21.627Z,88.93
2022-12-06T21:36:49.840Z,86.10
2022-12-06T21:39:17.952Z,89.17
2022-12-06T21:41:46.227Z,88.67
2022-12-06T21:44:14.441Z,87.00
2022-12-06T21:46:42.831Z,87.20
2022-12-06T21:49:12.918Z,87.90
2022-12-06T21:51:41.135Z,93.43
2022-12-06T21:54:09.480Z,86.97
2022-12-06T21:56:38.311Z,91.90
2022-12-06T21:59:06.380Z,91.97
2022-12-06T22:01:34.516Z,89.87
2022-12-06T22:04:04.603Z,87.60
2022-12-06T22:06:35.525Z,88.07
2022-12-06T22:09:06.330Z,87.50
2022-12-06T22:11:36.183Z,84.33
2022-12-06T22:14:05.777Z,84.67
2022-12-06T22:16:33.975Z,84.53
2022-12-06T22:19:02.468Z,80.47
2022-12-06T22:21:33.545Z,84.67
2022-12-06T22:24:01.898Z,82.00
2022-12-06T22:26:31.784Z,82.97
2022-12-06T22:29:01.060Z,81.70
2022-12-06T22:31:31.240Z,82.70
2022-12-06T22:33:59.989Z,83.63
2022-12-06T22:36:30.375Z,86.47
2022-12-06T22:39:02.160Z,82.30
2022-12-06T22:41:30.901Z,83.50
2022-12-06T22:44:01.126Z,86.70
2022-12-06T22:46:30.295Z,81.27
2022-12-06T22:48:59.769Z,83.07
2022-12-06T22:51:29.601Z,82.93
2022-12-06T22:54:00.687Z,85.37
2022-12-06T22:56:30.785Z,86.37
2022-12-06T22:59:00.358Z,86.20
2022-12-06T23:01:31.072Z,89.60
2022-12-06T23:04:01.831Z,91.83
2022-12-06T23:06:30.516Z,91.53
2022-12-06T23:09:00.072Z,92.77
2022-12-06T23:11:30.166Z,97.03
2022-12-06T23:13:59.608Z,93.43
2022-12-06T23:16:29.436Z,95.70
2022-12-06T23:18:58.405Z,95.83
2022-12-06T23:21:28.328Z,93.00
2022-12-06T23:24:00.328Z,95.27
2022-12-06T23:26:30.732Z,94.80
2022-12-06T23:28:58.875Z,91.20
2022-12-06T23:31:29.484Z,93.60
2022-12-06T23:33:59.652Z,94.90
2022-12-06T23:36:29.341Z,91.50
2022-12-06T23:38:59.029Z,90.90
2022-12-06T23:41:28.776Z,91.87
2022-12-06T23:43:58.159Z,96.90
2022-12-06T23:46:28.807Z,95.67
2022-12-06T23:48:57.749Z,95.83
2022-12-06T23:51:27.902Z,98.73
2022-12-06T23:53:57.943Z,100.50
2022-12-06T23:56:29.212Z,98.07
2022-12-06T23:58:58.043Z,95.33
